createdAt,value
2023-05-26T00:00:35.765Z,1.90
2023-05-26T00:10:38.955Z,1.70
2023-05-26T00:20:40.988Z,1.52
2023-05-26T00:30:42.844Z,1.90
2023-05-26T00:40:44.512Z,1.63
2023-05-26T00:50:48.241Z,1.58
2023-05-26T01:00:53.390Z,1.63
2023-05-26T01:11:08.487Z,1.67
2023-05-26T01:21:14.415Z,1.70
2023-05-26T01:31:16.509Z,1.80
2023-05-26T01:41:26.360Z,1.55
2023-05-26T01:51:33.828Z,1.50
2023-05-26T02:01:37.110Z,1.50
2023-05-26T02:11:41.870Z,1.52
2023-05-26T02:21:43.524Z,1.50
2023-05-26T02:32:12.055Z,1.50
2023-05-26T02:42:15.336Z,1.33
2023-05-26T02:52:22.206Z,1.45
2023-05-26T03:02:27.376Z,1.50
2023-05-26T03:12:29.172Z,1.30
2023-05-26T03:22:41.634Z,1.65
2023-05-26T03:32:53.869Z,1.55
2023-05-26T03:42:56.390Z,1.20
2023-05-26T03:52:58.202Z,1.17
2023-05-26T04:03:00.748Z,1.25
2023-05-26T04:13:02.454Z,1.02
2023-05-26T04:23:05.408Z,1.30
2023-05-26T04:33:08.672Z,1.30
2023-05-26T04:43:29.697Z,1.13
2023-05-26T04:53:31.448Z,1.65
2023-05-26T05:03:35.530Z,1.25
2023-05-26T05:13:46.981Z,1.10
2023-05-26T05:23:49.072Z,1.30
2023-05-26T05:33:50.998Z,1.30
2023-05-26T05:43:57.481Z,1.20
2023-05-26T05:54:00.617Z,1.45
2023-05-26T06:04:04.047Z,1.35
2023-05-26T06:14:07.042Z,1.30
2023-05-26T06:24:09.495Z,1.45
2023-05-26T06:34:11.214Z,1.30
2023-05-26T06:44:14.318Z,1.40
2023-05-26T06:54:16.184Z,1.25
2023-05-26T07:04:18.018Z,1.33
2023-05-26T07:14:19.757Z,1.80
2023-05-26T07:24:21.709Z,1.42
2023-05-26T07:34:23.460Z,1.33
2023-05-26T07:44:25.503Z,1.13
2023-05-26T07:54:27.104Z,1.35
2023-05-26T08:04:28.690Z,1.85
2023-05-26T08:14:30.310Z,1.60
2023-05-26T08:24:32.076Z,1.65
2023-05-26T08:34:33.658Z,1.52
2023-05-26T08:44:36.198Z,1.60
2023-05-26T08:54:38.560Z,1.60
2023-05-26T09:04:40.297Z,1.85
2023-05-26T09:14:43.097Z,1.30
2023-05-26T09:24:46.726Z,1.70
2023-05-26T09:34:51.199Z,1.90
2023-05-26T09:44:52.926Z,1.90
2023-05-26T09:54:54.540Z,1.92
2023-05-26T10:04:56.215Z,1.63
2023-05-26T10:14:59.476Z,1.88
2023-05-26T10:25:21.898Z,1.50
2023-05-26T10:35:28.373Z,2.08
2023-05-26T10:45:33.953Z,1.60
2023-05-26T10:55:57.005Z,1.77
2023-05-26T11:05:58.778Z,1.50
2023-05-26T11:16:26.421Z,1.20
2023-05-26T11:26:31.596Z,1.50
2023-05-26T11:36:33.497Z,1.90
2023-05-26T11:46:37.750Z,1.67
2023-05-26T11:56:39.343Z,1.63
2023-05-26T12:06:42.616Z,1.42
2023-05-26T12:16:44.792Z,1.63
2023-05-26T12:26:48.052Z,1.50
2023-05-26T12:36:50.431Z,1.33
2023-05-26T12:46:52.673Z,1.38
2023-05-26T12:56:54.234Z,1.45
2023-05-26T13:06:57.128Z,1.60
2023-05-26T13:17:00.290Z,1.88
2023-05-26T13:27:01.960Z,1.40
2023-05-26T13:37:04.643Z,1.60
2023-05-26T13:47:06.324Z,2.40
2023-05-26T13:57:08.557Z,2.60
2023-05-26T14:07:15.919Z,2.80
2023-05-26T14:17:18.061Z,2.42
2023-05-26T14:27:19.777Z,2.38
2023-05-26T14:37:21.384Z,2.05
2023-05-26T14:47:23.097Z,2.38
2023-05-26T14:57:24.756Z,2.78
2023-05-26T15:07:26.316Z,2.50
2023-05-26T15:17:28.009Z,2.45
2023-05-26T15:27:30.251Z,2.22
2023-05-26T15:37:39.300Z,2.00
2023-05-26T15:47:41.593Z,2.80
2023-05-26T15:57:43.566Z,5.65
2023-05-26T16:07:45.219Z,6.20
2023-05-26T16:17:46.849Z,5.15
2023-05-26T16:27:48.621Z,5.22
2023-05-26T16:37:50.218Z,4.45
2023-05-26T16:47:51.823Z,3.35
2023-05-26T16:57:53.518Z,3.00
2023-05-26T17:07:55.060Z,2.92
2023-05-26T17:17:56.768Z,2.50
2023-05-26T17:27:58.568Z,2.83
2023-05-26T17:38:00.495Z,2.40
2023-05-26T17:48:02.834Z,2.33
2023-05-26T17:58:04.494Z,1.95
2023-05-26T18:08:06.641Z,1.90
2023-05-26T18:18:08.289Z,2.28
2023-05-26T18:28:10.038Z,2.30
2023-05-26T18:38:11.597Z,1.95
2023-05-26T18:48:13.212Z,2.08
2023-05-26T18:58:14.855Z,2.10
2023-05-26T19:08:16.753Z,1.95
2023-05-26T19:18:18.433Z,2.47
2023-05-26T19:28:20.034Z,2.22
2023-05-26T19:38:21.623Z,2.15
2023-05-26T19:48:23.214Z,2.08
2023-05-26T19:58:24.822Z,2.30
2023-05-26T20:08:26.824Z,1.65
2023-05-26T20:18:29.239Z,1.50
2023-05-26T20:28:30.879Z,1.70
2023-05-26T20:38:35.784Z,1.63
2023-05-26T20:48:37.498Z,2.00
2023-05-26T20:58:39.102Z,2.00
2023-05-26T21:08:40.737Z,1.90
2023-05-26T21:18:42.338Z,2.60
2023-05-26T21:28:44.219Z,2.20
2023-05-26T21:38:46.408Z,1.45
2023-05-26T21:48:48.066Z,2.10
2023-05-26T21:58:49.705Z,1.73
2023-05-26T22:08:51.356Z,1.70
2023-05-26T22:18:52.993Z,2.10
2023-05-26T22:28:56.064Z,2.00
2023-05-26T22:39:03.967Z,1.70
2023-05-26T22:49:06.171Z,1.95
2023-05-26T22:59:07.974Z,1.77
2023-05-26T23:09:09.528Z,1.83
2023-05-26T23:19:12.757Z,1.42
2023-05-26T23:29:14.390Z,1.30
2023-05-26T23:39:16.031Z,1.50
2023-05-26T23:49:17.682Z,1.27
2023-05-26T23:59:19.209Z,1.23
